Time;durP1;ratioP1;P1;durP2;ratioP2;P2;SDS_P1;SDS_P2;PMS_P1;PMS_P2;Temp;Humidity;BMP_temperature;BMP_pressure;BME280_temperature;BME280_humidity;BME280_pressure;Samples;Min_cycle;Max_cycle;Signal;HPM_P1;HPM_P2
2023/03/03 00:01:24;;;;;;;10.07;5.87;;;;;;;0.24;100.00;100455.97;4951719;28;20227;-62
2023/03/03 00:03:49;;;;;;;11.73;6.80;;;;;;;0.31;100.00;100457.56;4972360;28;20181;-62
2023/03/03 00:06:14;;;;;;;10.10;7.07;;;;;;;0.33;100.00;100458.41;4970723;28;20331;-60
2023/03/03 00:08:41;;;;;;;10.87;6.17;;;;;;;0.38;100.00;100460.91;4971731;28;20192;-61
2023/03/03 00:11:06;;;;;;;9.00;6.10;;;;;;;0.33;100.00;100466.00;4963271;28;20609;-62
2023/03/03 00:13:41;;;;;;;11.87;6.63;;;;;;;0.24;100.00;100454.25;4975822;28;20188;-62
2023/03/03 00:16:28;;;;;;;8.97;6.43;;;;;;;0.14;100.00;100460.22;4962203;28;20377;-62
2023/03/03 00:18:54;;;;;;;11.40;6.53;;;;;;;0.11;100.00;100458.56;4968107;28;20685;-61
2023/03/03 00:21:27;;;;;;;14.83;8.10;;;;;;;0.01;100.00;100456.91;4960454;28;20274;-61
2023/03/03 00:23:57;;;;;;;9.63;7.10;;;;;;;0.05;100.00;100457.72;4973175;28;20204;-62
2023/03/03 00:26:33;;;;;;;9.73;7.20;;;;;;;0.01;100.00;100466.19;4980961;28;20979;-61
2023/03/03 00:29:00;;;;;;;9.53;6.63;;;;;;;-0.05;100.00;100470.44;4970778;28;20199;-62
2023/03/03 00:31:32;;;;;;;10.47;6.73;;;;;;;-0.03;100.00;100475.47;4966469;28;20252;-62
2023/03/03 00:34:19;;;;;;;8.73;6.40;;;;;;;0.02;100.00;100478.81;4962218;28;20206;-62
2023/03/03 00:36:48;;;;;;;8.40;6.33;;;;;;;0.02;100.00;100483.88;4971434;28;20279;-62
2023/03/03 00:39:28;;;;;;;14.80;6.70;;;;;;;-0.02;100.00;100480.53;4972792;28;20209;-61
2023/03/03 00:41:54;;;;;;;9.93;5.97;;;;;;;-0.20;100.00;100491.59;4972647;28;20447;-62
2023/03/03 00:44:41;;;;;;;7.70;6.20;;;;;;;-0.36;100.00;100488.25;4971101;28;20196;-62
2023/03/03 00:47:30;;;;;;;12.17;7.27;;;;;;;-0.36;100.00;100492.47;4971009;28;20180;-61
2023/03/03 00:50:23;;;;;;;12.90;7.63;;;;;;;-0.33;100.00;100497.53;4968611;28;20231;-62
2023/03/03 00:53:02;;;;;;;11.27;6.63;;;;;;;-0.36;100.00;100498.38;4945741;28;20235;-63
2023/03/03 00:55:29;;;;;;;9.50;6.77;;;;;;;-0.27;100.00;100497.50;4965892;28;20190;-62
2023/03/03 00:57:54;;;;;;;15.83;6.53;;;;;;;-0.23;100.00;100504.22;4973003;28;20270;-63
2023/03/03 01:00:19;;;;;;;10.77;6.73;;;;;;;-0.29;100.00;100504.25;4967533;28;20671;-62
2023/03/03 01:02:45;;;;;;;8.57;6.67;;;;;;;-0.35;100.00;100497.53;4984867;28;20191;-62
2023/03/03 01:05:13;;;;;;;11.67;7.27;;;;;;;-0.39;100.00;100508.47;4976398;28;20184;-62
2023/03/03 01:07:38;;;;;;;9.03;6.70;;;;;;;-0.40;100.00;100499.22;4974325;28;20238;-62
2023/03/03 01:10:04;;;;;;;11.93;7.27;;;;;;;-0.49;100.00;100499.25;4965466;28;20192;-62
2023/03/03 01:12:29;;;;;;;12.47;6.93;;;;;;;-0.50;100.00;100489.97;4989571;28;20181;-63
2023/03/03 01:14:55;;;;;;;10.90;7.07;;;;;;;-0.58;100.00;100496.72;4976534;28;20286;-62
2023/03/03 01:17:21;;;;;;;11.10;7.00;;;;;;;-0.57;100.00;100486.63;4975824;28;20203;-62
2023/03/03 01:19:46;;;;;;;12.47;8.00;;;;;;;-0.56;100.00;100493.38;4977435;28;20240;-61
2023/03/03 01:22:11;;;;;;;11.13;7.73;;;;;;;-0.62;100.00;100485.81;4981593;28;20624;-61
2023/03/03 01:24:36;;;;;;;11.13;7.07;;;;;;;-0.60;100.00;100483.28;4976312;28;20180;-62
2023/03/03 01:27:02;;;;;;;14.03;7.47;;;;;;;-0.80;100.00;100485.84;4972279;28;20184;-61
2023/03/03 01:29:27;;;;;;;12.23;7.37;;;;;;;-0.91;100.00;100483.31;4976037;28;20627;-60
2023/03/03 01:31:52;;;;;;;10.23;6.60;;;;;;;-0.85;100.00;100485.84;4979605;28;20223;-61
2023/03/03 01:34:18;;;;;;;11.57;6.77;;;;;;;-0.83;100.00;100485.00;4977174;28;20184;-61
2023/03/03 01:36:43;;;;;;;11.87;7.37;;;;;;;-0.74;100.00;100489.19;4975378;28;20184;-61
2023/03/03 01:39:10;;;;;;;13.60;7.17;;;;;;;-0.75;100.00;100489.19;4974752;28;20238;-61
2023/03/03 01:41:35;;;;;;;9.67;7.23;;;;;;;-0.77;100.00;100485.81;4967379;28;20231;-61
2023/03/03 01:44:01;;;;;;;12.07;7.00;;;;;;;-0.83;100.00;100487.53;4974389;28;20246;-61
2023/03/03 01:46:26;;;;;;;9.53;6.30;;;;;;;-0.85;100.00;100481.63;4973799;28;20194;-61
2023/03/03 01:49:02;;;;;;;12.00;7.57;;;;;;;-0.98;100.00;100485.84;4974182;28;20624;-61
2023/03/03 01:51:52;;;;;;;12.10;7.60;;;;;;;-1.06;100.00;100486.72;4976430;28;20231;-61
2023/03/03 01:54:24;;;;;;;12.50;7.37;;;;;;;-1.03;100.00;100479.97;4974386;28;20191;-61
2023/03/03 01:56:52;;;;;;;10.90;7.20;;;;;;;-1.02;100.00;100475.75;4974990;28;20184;-63
2023/03/03 01:59:26;;;;;;;14.30;7.73;;;;;;;-1.12;100.00;100474.91;4975053;28;20258;-61
2023/03/03 02:01:52;;;;;;;9.47;7.10;;;;;;;-1.04;100.00;100474.91;4979108;28;20293;-61
2023/03/03 02:04:18;;;;;;;13.50;7.73;;;;;;;-1.17;100.00;100479.97;4976833;28;20184;-61
2023/03/03 02:06:51;;;;;;;15.57;7.60;;;;;;;-1.21;100.00;100483.34;4973709;28;20180;-61
2023/03/03 02:09:30;;;;;;;14.10;7.73;;;;;;;-1.14;100.00;100479.97;4975239;28;20274;-61
2023/03/03 02:12:00;;;;;;;11.40;6.97;;;;;;;-1.18;100.00;100487.53;4979248;28;20215;-61
2023/03/03 02:14:25;;;;;;;13.57;7.37;;;;;;;-1.18;100.00;100474.91;4975254;28;20232;-62
2023/03/03 02:16:51;;;;;;;11.70;7.37;;;;;;;-1.36;100.00;100471.56;4975350;28;20515;-61
2023/03/03 02:19:31;;;;;;;10.60;7.33;;;;;;;-1.43;100.00;100469.84;4975290;28;20673;-61
2023/03/03 02:22:01;;;;;;;10.83;6.90;;;;;;;-1.28;100.00;100478.28;4973576;28;20230;-61
2023/03/03 02:24:41;;;;;;;10.67;7.37;;;;;;;-1.37;100.00;100477.44;4975103;28;20194;-61
2023/03/03 02:27:07;;;;;;;15.83;7.53;;;;;;;-1.30;100.00;100479.13;4974528;28;20198;-61
2023/03/03 02:29:32;;;;;;;16.77;7.67;;;;;;;-1.31;100.00;100479.13;4974952;28;20204;-61
2023/03/03 02:31:57;;;;;;;13.30;7.77;;;;;;;-1.30;100.00;100476.59;4979204;28;20252;-61
2023/03/03 02:34:23;;;;;;;14.27;7.93;;;;;;;-1.33;100.00;100476.63;4973692;28;20185;-61
2023/03/03 02:36:48;;;;;;;13.97;8.13;;;;;;;-1.39;100.00;100471.56;4974387;28;20206;-62
2023/03/03 02:39:26;;;;;;;14.30;8.33;;;;;;;-1.54;100.00;100481.63;4974787;28;20663;-61
2023/03/03 02:42:16;;;;;;;14.70;8.10;;;;;;;-1.61;100.00;100478.28;4966376;28;20698;-61
2023/03/03 02:44:41;;;;;;;17.33;8.23;;;;;;;-1.51;100.00;100474.91;4975120;28;20195;-61
2023/03/03 02:47:06;;;;;;;11.87;7.57;;;;;;;-1.56;100.00;100478.25;4974115;28;20184;-62
2023/03/03 02:49:34;;;;;;;9.63;6.80;;;;;;;-1.55;100.00;100479.94;4973246;28;20591;-61
2023/03/03 02:52:01;;;;;;;10.07;7.60;;;;;;;-1.60;100.00;100481.63;4978939;28;20314;-62
2023/03/03 02:54:31;;;;;;;12.53;8.00;;;;;;;-1.58;100.00;100474.91;4974941;28;20191;-61
2023/03/03 02:56:57;;;;;;;13.57;8.17;;;;;;;-1.56;100.00;100479.13;4974009;28;20190;-61
2023/03/03 02:59:22;;;;;;;13.57;7.90;;;;;;;-1.54;100.00;100479.09;4974501;28;20215;-61
2023/03/03 03:01:49;;;;;;;13.50;7.70;;;;;;;-1.53;100.00;100478.28;4977553;28;20361;-61
2023/03/03 03:04:19;;;;;;;13.63;7.53;;;;;;;-1.58;100.00;100482.47;4972934;28;20184;-62
2023/03/03 03:06:45;;;;;;;12.13;7.70;;;;;;;-1.62;100.00;100484.97;4962231;28;20184;-62
2023/03/03 03:09:11;;;;;;;10.73;7.77;;;;;;;-1.63;100.00;100478.25;4973026;28;20184;-61
2023/03/03 03:11:37;;;;;;;17.37;8.63;;;;;;;-1.60;100.00;100476.56;4976041;28;20356;-61
2023/03/03 03:14:03;;;;;;;10.83;7.93;;;;;;;-1.64;100.00;100476.59;4977137;28;20277;-61
2023/03/03 03:16:30;;;;;;;11.43;7.50;;;;;;;-1.72;100.00;100484.97;4973415;28;20236;-61
2023/03/03 03:18:56;;;;;;;12.33;7.83;;;;;;;-1.72;100.00;100487.50;4972723;28;20567;-61
2023/03/03 03:21:22;;;;;;;9.53;7.40;;;;;;;-1.73;100.00;100483.28;4980064;28;20222;-61
2023/03/03 03:23:47;;;;;;;12.17;7.80;;;;;;;-1.76;100.00;100485.78;4978913;28;20197;-61
2023/03/03 03:26:13;;;;;;;10.40;8.07;;;;;;;-1.81;100.00;100483.25;4973355;28;20580;-61
2023/03/03 03:28:38;;;;;;;14.67;8.53;;;;;;;-1.80;100.00;100482.41;4973895;28;20622;-60
2023/03/03 03:31:05;;;;;;;12.20;8.23;;;;;;;-1.95;100.00;100479.03;4965635;28;20657;-61
2023/03/03 03:33:31;;;;;;;14.13;8.57;;;;;;;-1.91;100.00;100477.38;4980789;28;20184;-62
2023/03/03 03:35:57;;;;;;;10.47;8.27;;;;;;;-1.85;100.00;100486.59;4973216;28;20185;-62
2023/03/03 03:38:25;;;;;;;11.83;8.60;;;;;;;-1.81;100.00;100488.28;4972323;28;20677;-61
2023/03/03 03:40:51;;;;;;;13.47;7.77;;;;;;;-1.79;100.00;100489.16;4970247;28;20290;-61
2023/03/03 03:43:17;;;;;;;13.70;8.67;;;;;;;-1.77;100.00;100490.00;4982291;28;20180;-61
2023/03/03 03:45:42;;;;;;;12.63;7.90;;;;;;;-1.79;100.00;100486.63;4972240;28;20172;-61
2023/03/03 03:48:07;;;;;;;14.33;7.23;;;;;;;-1.80;100.00;100493.38;4971695;28;20192;-61
2023/03/03 03:50:33;;;;;;;12.23;7.73;;;;;;;-1.82;100.00;100484.94;4965601;28;20289;-61
2023/03/03 03:52:58;;;;;;;12.23;8.67;;;;;;;-1.87;100.00;100494.19;4972165;28;20211;-62
2023/03/03 03:55:23;;;;;;;11.20;7.93;;;;;;;-1.92;100.00;100497.50;4973621;28;20195;-61
2023/03/03 03:57:49;;;;;;;14.30;8.20;;;;;;;-1.91;100.00;100491.63;4972899;28;20190;-61
2023/03/03 04:00:15;;;;;;;13.97;7.70;;;;;;;-1.98;100.00;100495.81;4954027;28;20223;-62
2023/03/03 04:02:40;;;;;;;14.53;8.50;;;;;;;-1.95;100.00;100495.81;4975987;28;20255;-61
2023/03/03 04:05:06;;;;;;;14.37;9.13;;;;;;;-2.00;100.00;100497.50;4973649;28;20283;-61
2023/03/03 04:07:31;;;;;;;12.83;9.00;;;;;;;-1.95;100.00;100505.91;4972834;28;20191;-61
2023/03/03 04:09:57;;;;;;;16.10;9.10;;;;;;;-2.05;100.00;100500.00;4973100;28;20282;-61
2023/03/03 04:12:22;;;;;;;22.50;9.20;;;;;;;-2.00;100.00;100507.56;4962653;28;20301;-64
2023/03/03 04:14:47;;;;;;;11.53;7.77;;;;;;;-1.91;100.00;100512.66;4973167;28;20220;-61
2023/03/03 04:17:20;;;;;;;12.23;7.80;;;;;;;-1.93;100.00;100510.94;4977952;28;20226;-61
2023/03/03 04:19:46;;;;;;;14.47;8.73;;;;;;;-1.88;100.00;100506.78;4963604;28;20282;-61
2023/03/03 04:22:12;;;;;;;12.73;8.53;;;;;;;-1.90;100.00;100505.94;4982814;28;20688;-61
2023/03/03 04:24:38;;;;;;;13.07;8.93;;;;;;;-1.90;100.00;100513.50;4973178;28;20550;-61
2023/03/03 04:27:04;;;;;;;13.00;8.40;;;;;;;-2.00;100.00;100505.06;4972226;28;20247;-61
2023/03/03 04:29:29;;;;;;;14.73;9.80;;;;;;;-1.95;100.00;100505.91;4973166;28;20211;-63
2023/03/03 04:31:55;;;;;;;15.03;9.20;;;;;;;-1.93;100.00;100511.81;4975869;28;20665;-62
2023/03/03 04:34:20;;;;;;;16.70;9.23;;;;;;;-1.90;100.00;100503.41;4961157;28;20187;-61
2023/03/03 04:36:45;;;;;;;13.40;9.57;;;;;;;-1.95;100.00;100511.81;4972232;28;20187;-61
2023/03/03 04:39:11;;;;;;;15.47;9.00;;;;;;;-1.97;100.00;100518.50;4972820;28;20196;-61
2023/03/03 04:41:36;;;;;;;15.03;8.33;;;;;;;-1.98;100.00;100516.81;4974838;28;20230;-61
2023/03/03 04:44:01;;;;;;;14.00;9.60;;;;;;;-2.02;100.00;100510.09;4971350;28;20190;-61
2023/03/03 04:46:27;;;;;;;11.90;8.87;;;;;;;-2.05;100.00;100520.16;4972456;28;20203;-61
2023/03/03 04:48:52;;;;;;;11.63;8.83;;;;;;;-2.13;100.00;100524.34;4972821;28;20187;-61
2023/03/03 04:51:17;;;;;;;10.93;8.97;;;;;;;-2.15;100.00;100521.78;4971788;28;20596;-61
2023/03/03 04:53:43;;;;;;;13.53;9.63;;;;;;;-2.14;100.00;100518.44;4978417;28;20183;-61
2023/03/03 04:56:08;;;;;;;13.07;10.40;;;;;;;-2.18;100.00;100523.47;4971892;28;20731;-61
2023/03/03 04:58:33;;;;;;;11.90;9.03;;;;;;;-2.14;100.00;100526.00;4972573;28;20232;-61
2023/03/03 05:00:58;;;;;;;14.23;10.33;;;;;;;-2.07;100.00;100521.00;4945104;28;20657;-62
2023/03/03 05:03:25;;;;;;;15.17;9.60;;;;;;;-2.08;100.00;100527.72;4971389;28;20192;-61
2023/03/03 05:05:51;;;;;;;13.70;9.30;;;;;;;-2.06;100.00;100525.19;4972316;28;20260;-61
2023/03/03 05:08:16;;;;;;;16.47;10.33;;;;;;;-2.16;100.00;100525.19;4972897;28;20527;-61
2023/03/03 05:10:58;;;;;;;15.00;10.17;;;;;;;-2.16;100.00;100524.31;4966861;28;20222;-61
2023/03/03 05:13:26;;;;;;;12.67;10.03;;;;;;;-2.17;100.00;100531.03;4980996;28;20283;-61
2023/03/03 05:15:54;;;;;;;15.07;10.10;;;;;;;-2.19;100.00;100526.84;4971783;28;20226;-63
2023/03/03 05:18:20;;;;;;;13.70;9.83;;;;;;;-2.21;100.00;100519.25;4971383;28;20195;-61
2023/03/03 05:20:46;;;;;;;15.27;10.73;;;;;;;-2.21;100.00;100523.47;4970247;28;21505;-62
2023/03/03 05:23:11;;;;;;;13.97;9.97;;;;;;;-2.24;100.00;100520.94;4971319;28;20242;-61
2023/03/03 05:25:37;;;;;;;15.90;10.10;;;;;;;-2.27;100.00;100521.72;4972251;28;20191;-61
2023/03/03 05:28:03;;;;;;;17.83;11.67;;;;;;;-2.21;100.00;100523.47;4970683;28;20202;-62
2023/03/03 05:30:28;;;;;;;15.50;10.20;;;;;;;-2.19;100.00;100525.16;4964016;28;20240;-61
2023/03/03 05:32:54;;;;;;;18.43;11.60;;;;;;;-2.19;100.00;100522.63;4983979;28;20262;-61
2023/03/03 05:35:19;;;;;;;15.33;11.03;;;;;;;-2.27;100.00;100526.78;4972145;28;20199;-61
2023/03/03 05:37:46;;;;;;;19.83;11.13;;;;;;;-2.16;100.00;100535.25;4970671;28;20227;-62
2023/03/03 05:40:13;;;;;;;15.30;10.87;;;;;;;-2.19;100.00;100531.88;4962857;28;20212;-61
2023/03/03 05:42:39;;;;;;;15.43;11.00;;;;;;;-2.18;100.00;100536.09;4971471;28;20186;-61
2023/03/03 05:45:05;;;;;;;16.83;11.67;;;;;;;-2.21;100.00;100536.06;4975921;28;20643;-61
2023/03/03 05:47:30;;;;;;;20.53;12.40;;;;;;;-2.33;100.00;100540.19;4975669;28;20196;-63
2023/03/03 05:49:55;;;;;;;22.87;12.63;;;;;;;-2.33;100.00;100531.78;4975643;28;20241;-62
2023/03/03 05:52:21;;;;;;;16.67;11.80;;;;;;;-2.27;100.00;100541.91;4965647;28;20595;-61
2023/03/03 05:54:46;;;;;;;18.37;12.37;;;;;;;-2.22;100.00;100546.97;4975448;28;20178;-61
2023/03/03 05:57:11;;;;;;;17.93;11.70;;;;;;;-2.23;100.00;100552.84;4975858;28;20528;-61
2023/03/03 05:59:37;;;;;;;20.27;11.63;;;;;;;-2.25;100.00;100560.41;4975632;28;20274;-61
2023/03/03 06:02:02;;;;;;;20.23;11.80;;;;;;;-2.25;100.00;100557.88;4967220;28;20223;-61
2023/03/03 06:04:27;;;;;;;26.83;12.13;;;;;;;-2.27;100.00;100562.91;4971015;28;20491;-61
2023/03/03 06:06:53;;;;;;;19.83;12.20;;;;;;;-2.23;100.00;100561.25;4975207;28;20604;-61
2023/03/03 06:09:18;;;;;;;15.57;11.30;;;;;;;-2.28;100.00;100557.88;4973852;28;20241;-61
2023/03/03 06:11:43;;;;;;;18.50;12.57;;;;;;;-2.26;100.00;100563.75;4978265;28;20335;-61
2023/03/03 06:14:09;;;;;;;17.10;11.53;;;;;;;-2.25;100.00;100575.53;4977323;28;20290;-61
2023/03/03 06:16:34;;;;;;;20.93;11.90;;;;;;;-2.27;100.00;100582.22;4974971;28;20639;-61
2023/03/03 06:19:00;;;;;;;20.20;12.00;;;;;;;-2.25;100.00;100572.16;4972591;28;20242;-61
2023/03/03 06:21:25;;;;;;;19.73;11.67;;;;;;;-2.23;100.00;100575.53;4970431;28;20225;-60
2023/03/03 06:23:50;;;;;;;19.47;11.40;;;;;;;-2.18;100.00;100584.81;4967346;28;20180;-61
2023/03/03 06:26:16;;;;;;;19.40;12.57;;;;;;;-2.22;100.00;100577.22;4962851;28;20211;-62
2023/03/03 06:28:41;;;;;;;18.70;12.47;;;;;;;-2.18;100.00;100576.41;4968180;28;20200;-62
2023/03/03 06:31:06;;;;;;;19.23;13.50;;;;;;;-2.26;100.00;100583.91;4971198;28;20686;-61
2023/03/03 06:33:32;;;;;;;24.53;12.50;;;;;;;-2.17;100.00;100586.50;4977163;28;20214;-61
2023/03/03 06:35:57;;;;;;;20.37;12.37;;;;;;;-2.05;100.00;100592.44;4971825;28;20261;-62
2023/03/03 06:38:23;;;;;;;18.57;12.37;;;;;;;-1.84;100.00;100582.44;4970164;28;20200;-61
2023/03/03 06:40:48;;;;;;;20.07;12.83;;;;;;;-1.70;100.00;100590.09;4960265;28;20234;-61
2023/03/03 06:43:14;;;;;;;21.43;12.37;;;;;;;-1.55;100.00;100589.28;4968772;28;20189;-61
2023/03/03 06:45:39;;;;;;;18.87;13.07;;;;;;;-1.55;100.00;100599.38;4967218;28;20660;-61
2023/03/03 06:48:05;;;;;;;20.63;13.23;;;;;;;-1.34;100.00;100600.25;4965511;28;20241;-62
2023/03/03 06:50:30;;;;;;;20.00;13.20;;;;;;;-1.20;100.00;100618.00;4963090;28;20612;-63
2023/03/03 06:53:06;;;;;;;26.37;13.77;;;;;;;-1.17;100.00;100608.72;4973526;28;20308;-63
2023/03/03 06:55:32;;;;;;;21.07;12.83;;;;;;;-0.90;100.00;100617.19;4966543;28;20231;-62
2023/03/03 06:57:58;;;;;;;20.03;13.77;;;;;;;-0.77;100.00;100618.06;4965877;28;20941;-62
2023/03/03 07:00:26;;;;;;;21.03;12.87;;;;;;;-0.47;100.00;100623.09;4958368;28;20262;-62
2023/03/03 07:03:07;;;;;;;19.43;13.47;;;;;;;-0.42;100.00;100614.66;4976979;28;20184;-63
2023/03/03 07:05:33;;;;;;;23.17;14.03;;;;;;;-0.15;100.00;100617.16;4966491;28;20173;-62
2023/03/03 07:07:59;;;;;;;25.63;16.17;;;;;;;0.15;100.00;100624.66;4971693;28;20188;-63
2023/03/03 07:10:28;;;;;;;29.13;17.13;;;;;;;0.69;100.00;100626.13;4965682;28;20274;-62
2023/03/03 07:12:58;;;;;;;29.70;20.20;;;;;;;1.90;100.00;100628.56;4976956;28;20267;-62
2023/03/03 07:15:34;;;;;;;28.17;15.97;;;;;;;3.19;100.00;100632.84;4972641;28;20226;-62
2023/03/03 07:18:01;;;;;;;25.40;15.90;;;;;;;3.88;100.00;100625.78;4956781;28;20199;-62
2023/03/03 07:20:34;;;;;;;27.63;18.77;;;;;;;4.48;99.09;100623.75;4963141;28;20234;-63
2023/03/03 07:23:11;;;;;;;27.93;21.00;;;;;;;4.27;100.00;100634.41;4966568;28;20180;-63
2023/03/03 07:25:36;;;;;;;29.33;22.17;;;;;;;4.61;100.00;100641.34;4968789;28;20190;-62
2023/03/03 07:28:22;;;;;;;34.47;24.87;;;;;;;4.44;100.00;100642.53;4973387;28;20178;-62
2023/03/03 07:30:47;;;;;;;31.50;24.33;;;;;;;4.09;100.00;100659.31;4956862;28;20270;-62
2023/03/03 07:33:42;;;;;;;33.00;24.80;;;;;;;4.11;100.00;100654.22;4975842;28;20630;-63
2023/03/03 07:36:25;;;;;;;33.67;26.17;;;;;;;4.05;100.00;100652.63;4967767;28;20338;-62
2023/03/03 07:38:57;;;;;;;34.93;23.70;;;;;;;4.37;100.00;100658.81;4971992;28;20220;-63
2023/03/03 07:41:22;;;;;;;32.73;24.57;;;;;;;4.59;100.00;100661.75;4966055;28;20320;-62
2023/03/03 07:43:59;;;;;;;29.83;24.63;;;;;;;4.63;100.00;100665.09;4958820;28;20662;-63
2023/03/03 07:46:29;;;;;;;32.90;25.50;;;;;;;4.36;100.00;100664.75;4965191;28;20187;-63
2023/03/03 07:48:57;;;;;;;32.77;26.53;;;;;;;3.81;100.00;100672.56;4971072;28;20187;-63
2023/03/03 07:51:34;;;;;;;35.40;26.17;;;;;;;3.40;100.00;100686.81;4959566;28;20290;-63
2023/03/03 07:54:10;;;;;;;34.40;24.17;;;;;;;2.39;100.00;100687.28;4968630;28;20195;-61
2023/03/03 07:56:35;;;;;;;38.57;27.43;;;;;;;2.30;100.00;100693.28;4969528;28;20187;-62
2023/03/03 07:59:25;;;;;;;34.87;27.20;;;;;;;2.14;100.00;100694.31;4964994;28;20200;-62
2023/03/03 08:01:57;;;;;;;38.57;28.73;;;;;;;2.12;100.00;100698.56;4951288;28;20245;-62
2023/03/03 08:04:31;;;;;;;39.03;27.43;;;;;;;1.99;100.00;100711.38;4963944;28;20172;-62
2023/03/03 08:07:01;;;;;;;41.73;28.77;;;;;;;1.69;100.00;100699.81;4967415;28;20198;-62
2023/03/03 08:09:34;;;;;;;42.83;29.33;;;;;;;1.96;100.00;100696.19;4973067;28;20224;-63
2023/03/03 08:12:05;;;;;;;41.07;29.60;;;;;;;2.10;100.00;100701.94;4961581;28;20392;-62
2023/03/03 08:14:34;;;;;;;40.33;27.83;;;;;;;1.99;100.00;100708.00;4963401;28;20707;-63
2023/03/03 08:17:01;;;;;;;39.10;27.67;;;;;;;2.03;100.00;100710.47;4975980;28;20248;-63
2023/03/03 08:19:29;;;;;;;40.37;29.03;;;;;;;2.18;100.00;100711.19;4971378;28;20213;-63
2023/03/03 08:22:05;;;;;;;40.70;27.13;;;;;;;2.16;100.00;100716.28;4977230;28;20233;-64
2023/03/03 08:24:30;;;;;;;36.73;27.27;;;;;;;1.77;100.00;100725.94;4971761;28;20651;-62
2023/03/03 08:26:56;;;;;;;40.07;30.90;;;;;;;1.77;100.00;100714.09;4972245;28;20426;-64
2023/03/03 08:29:21;;;;;;;44.00;31.33;;;;;;;1.87;100.00;100719.94;4973040;28;20573;-63
2023/03/03 08:31:47;;;;;;;39.00;27.53;;;;;;;2.05;100.00;100713.84;4964806;28;20229;-64
2023/03/03 08:34:12;;;;;;;39.17;27.43;;;;;;;2.04;100.00;100717.25;4974782;28;20248;-61
2023/03/03 08:36:37;;;;;;;37.53;27.17;;;;;;;2.05;100.00;100715.56;4972248;28;20180;-61
2023/03/03 08:39:03;;;;;;;37.60;27.33;;;;;;;2.04;100.00;100724.03;4972830;28;20223;-62
2023/03/03 08:41:29;;;;;;;37.40;26.83;;;;;;;2.01;100.00;100718.97;4973668;28;20230;-61
2023/03/03 08:43:54;;;;;;;37.53;26.17;;;;;;;1.98;100.00;100716.47;4962596;28;20191;-62
2023/03/03 08:46:19;;;;;;;40.17;26.17;;;;;;;2.21;100.00;100722.16;4972428;28;20187;-61
2023/03/03 08:48:45;;;;;;;38.87;26.10;;;;;;;2.40;100.00;100714.34;4972608;28;20194;-63
2023/03/03 08:51:10;;;;;;;41.80;26.90;;;;;;;2.35;100.00;100714.41;4971343;28;20689;-62
2023/03/03 08:53:37;;;;;;;36.17;26.57;;;;;;;2.43;100.00;100709.22;4979140;28;20191;-62
2023/03/03 08:56:03;;;;;;;38.43;26.77;;;;;;;2.25;100.00;100716.19;4971848;28;20206;-62
2023/03/03 08:58:28;;;;;;;37.50;25.80;;;;;;;2.35;100.00;100714.41;4971329;28;20204;-61
2023/03/03 09:00:54;;;;;;;33.83;25.30;;;;;;;2.60;100.00;100716.66;4969254;28;20223;-61
2023/03/03 09:03:19;;;;;;;35.27;25.37;;;;;;;2.63;100.00;100725.94;4980811;28;20191;-61
2023/03/03 09:05:44;;;;;;;33.93;24.80;;;;;;;2.67;100.00;100718.28;4972662;28;20220;-61
2023/03/03 09:08:10;;;;;;;38.33;26.97;;;;;;;2.77;100.00;100723.22;4972121;28;20180;-62
2023/03/03 09:10:35;;;;;;;35.43;25.83;;;;;;;2.90;100.00;100720.53;4966755;28;20232;-62
2023/03/03 09:13:11;;;;;;;35.00;26.30;;;;;;;2.88;100.00;100727.34;4983724;28;20263;-62
2023/03/03 09:15:37;;;;;;;35.77;25.57;;;;;;;2.84;100.00;100722.31;4971029;28;20318;-61
2023/03/03 09:18:24;;;;;;;35.77;26.40;;;;;;;3.81;100.00;100718.38;4972808;28;20196;-61
2023/03/03 09:20:55;;;;;;;32.57;24.47;;;;;;;4.50;100.00;100725.63;4973796;28;20235;-62
2023/03/03 09:23:32;;;;;;;31.20;23.83;;;;;;;5.61;100.00;100724.97;4984873;28;20191;-62
2023/03/03 09:26:05;;;;;;;31.57;25.10;;;;;;;6.15;97.13;100721.09;4974217;28;20513;-61
2023/03/03 09:28:31;;;;;;;33.13;25.77;;;;;;;6.93;87.40;100720.66;4976518;28;20218;-62
2023/03/03 09:30:59;;;;;;;29.57;24.47;;;;;;;7.58;87.14;100712.72;4967779;28;20714;-61
2023/03/03 09:33:39;;;;;;;27.53;23.07;;;;;;;8.95;69.53;100712.25;4983771;28;20190;-63
2023/03/03 09:36:17;;;;;;;33.73;24.70;;;;;;;11.00;57.80;100707.13;4964381;28;20278;-64
2023/03/03 09:38:46;;;;;;;29.17;24.67;;;;;;;11.27;51.99;100711.88;4975851;28;20295;-62
2023/03/03 09:41:36;;;;;;;31.00;26.27;;;;;;;12.41;50.73;100716.53;4974926;28;20702;-62
2023/03/03 09:44:16;;;;;;;27.43;24.40;;;;;;;10.72;51.98;100730.75;4959302;28;20180;-62
2023/03/03 09:47:12;;;;;;;31.50;26.23;;;;;;;10.91;52.09;100728.16;4971792;28;20202;-63
2023/03/03 09:50:16;;;;;;;28.57;25.57;;;;;;;11.56;51.01;100728.53;4974450;28;20654;-62
2023/03/03 09:52:51;;;;;;;27.13;24.23;;;;;;;11.42;48.88;100725.78;4938317;28;20579;-62
2023/03/03 09:55:38;;;;;;;27.17;24.10;;;;;;;11.59;48.97;100724.97;4975610;28;20184;-63
2023/03/03 09:58:19;;;;;;;27.67;24.77;;;;;;;12.72;45.75;100730.41;4975104;28;20223;-62
2023/03/03 10:01:02;;;;;;;32.63;25.70;;;;;;;12.15;47.22;100745.44;4967368;28;20273;-62
2023/03/03 10:03:52;;;;;;;28.47;25.47;;;;;;;11.32;48.65;100735.69;4974482;28;20203;-62
2023/03/03 10:06:48;;;;;;;28.73;25.70;;;;;;;10.54;50.75;100743.50;4975081;28;20207;-62
2023/03/03 10:09:36;;;;;;;29.33;26.43;;;;;;;12.85;47.07;100737.50;4974305;28;20648;-62
2023/03/03 10:12:17;;;;;;;26.67;23.87;;;;;;;13.34;43.32;100731.41;4967268;28;20219;-62
2023/03/03 10:14:54;;;;;;;27.73;24.03;;;;;;;13.55;42.76;100725.03;4975292;28;20671;-63
2023/03/03 10:17:44;;;;;;;30.97;24.77;;;;;;;13.11;43.58;100737.81;4974944;28;20183;-60
2023/03/03 10:20:46;;;;;;;30.97;23.80;;;;;;;13.15;44.76;100745.34;4970728;28;20203;-60
2023/03/03 10:23:36;;;;;;;29.60;24.70;;;;;;;12.83;45.13;100742.75;4975607;28;20179;-61
2023/03/03 10:26:19;;;;;;;29.00;25.90;;;;;;;11.22;47.85;100745.56;4972749;28;20180;-60
2023/03/03 10:28:53;;;;;;;31.00;26.20;;;;;;;10.85;49.27;100751.59;4974944;28;20680;-62
2023/03/03 10:31:55;;;;;;;28.97;25.63;;;;;;;12.31;47.81;100741.16;4966454;28;20670;-63
2023/03/03 10:34:42;;;;;;;26.67;23.97;;;;;;;11.02;48.61;100753.41;4958948;28;20215;-62
2023/03/03 10:37:17;;;;;;;29.83;24.77;;;;;;;10.00;54.20;100763.78;4971786;28;20173;-63
2023/03/03 10:40:02;;;;;;;28.03;24.60;;;;;;;9.63;55.85;100755.81;4973676;28;20550;-63
2023/03/03 10:43:07;;;;;;;28.77;25.57;;;;;;;7.65;65.00;100760.25;4949494;28;20263;-60
2023/03/03 10:45:44;;;;;;;31.07;26.17;;;;;;;6.51;82.03;100751.69;4973230;28;20180;-62
2023/03/03 10:48:09;;;;;;;30.33;25.73;;;;;;;6.21;87.29;100756.69;4974002;28;20172;-62
2023/03/03 10:50:50;;;;;;;32.00;26.73;;;;;;;6.38;90.64;100756.25;4968793;28;20227;-65
2023/03/03 10:53:33;;;;;;;34.93;25.40;;;;;;;6.22;90.92;100755.00;4983730;28;20186;-63
2023/03/03 10:56:10;;;;;;;29.87;23.80;;;;;;;5.70;94.11;100760.47;4972863;28;20187;-61
2023/03/03 10:58:38;;;;;;;37.70;24.07;;;;;;;5.90;94.87;100761.72;4961528;28;20207;-62
2023/03/03 11:01:21;;;;;;;32.67;24.53;;;;;;;6.12;95.20;100768.00;4966126;28;20332;-62
2023/03/03 11:04:12;;;;;;;37.77;26.03;;;;;;;5.87;93.77;100761.81;4973394;28;20618;-61
2023/03/03 11:07:07;;;;;;;34.40;24.17;;;;;;;6.27;91.98;100773.59;4961833;28;20222;-62
2023/03/03 11:09:33;;;;;;;34.43;25.37;;;;;;;5.69;93.98;100768.19;4972816;28;20183;-62
2023/03/03 11:12:16;;;;;;;28.93;22.73;;;;;;;5.29;97.37;100769.91;4979144;28;20229;-61
2023/03/03 11:14:48;;;;;;;33.40;24.97;;;;;;;5.68;98.13;100759.69;4974287;28;20251;-64
2023/03/03 11:17:27;;;;;;;31.33;22.90;;;;;;;6.00;95.00;100763.19;4973625;28;20282;-62
2023/03/03 11:20:06;;;;;;;33.03;24.03;;;;;;;5.75;94.15;100755.28;4974762;28;20202;-63
2023/03/03 11:22:48;;;;;;;38.33;24.87;;;;;;;5.61;96.58;100755.59;4965198;28;20234;-62
2023/03/03 11:25:23;;;;;;;30.90;21.40;;;;;;;5.96;95.47;100756.47;4973993;28;20259;-62